createdAt,value
2023-02-17T00:00:11.846Z,4.90
2023-02-17T00:02:40.458Z,4.90
2023-02-17T00:05:10.438Z,5.00
2023-02-17T00:07:39.285Z,4.90
2023-02-17T00:10:09.262Z,4.80
2023-02-17T00:12:37.911Z,4.70
2023-02-17T00:15:06.933Z,4.60
2023-02-17T00:17:35.431Z,4.60
2023-02-17T00:20:03.858Z,4.50
2023-02-17T00:22:33.682Z,4.60
2023-02-17T00:25:02.159Z,4.70
2023-02-17T00:27:30.644Z,4.60
2023-02-17T00:29:59.155Z,4.60
2023-02-17T00:32:27.581Z,4.50
2023-02-17T00:34:58.396Z,4.40
2023-02-17T00:37:26.862Z,4.40
2023-02-17T00:39:56.685Z,4.40
2023-02-17T00:42:25.122Z,4.40
2023-02-17T00:44:53.493Z,4.40
2023-02-17T00:47:22.148Z,4.50
2023-02-17T00:49:50.565Z,4.50
2023-02-17T00:52:18.977Z,4.50
2023-02-17T00:54:47.392Z,4.50
2023-02-17T00:57:17.297Z,4.50
2023-02-17T00:59:45.771Z,4.40
2023-02-17T01:02:14.241Z,4.80
2023-02-17T01:04:42.703Z,5.00
2023-02-17T01:07:11.277Z,4.90
2023-02-17T01:09:40.028Z,4.90
2023-02-17T01:12:08.589Z,4.80
2023-02-17T01:14:38.343Z,4.90
2023-02-17T01:17:06.728Z,5.00
2023-02-17T01:19:35.258Z,5.10
2023-02-17T01:22:03.840Z,5.20
2023-02-17T01:24:32.377Z,5.20
2023-02-17T01:27:00.795Z,5.10
2023-02-17T01:29:29.196Z,5.00
2023-02-17T01:31:59.029Z,4.90
2023-02-17T01:34:27.453Z,4.80
2023-02-17T01:36:55.979Z,4.70
2023-02-17T01:39:24.401Z,4.70
2023-02-17T01:41:52.804Z,4.60
2023-02-17T01:44:23.186Z,4.60
2023-02-17T01:46:53.123Z,4.60
2023-02-17T01:49:28.577Z,4.60
2023-02-17T01:52:01.179Z,4.50
2023-02-17T01:54:31.620Z,4.50
2023-02-17T01:57:00.935Z,4.50
2023-02-17T01:59:30.153Z,4.50
2023-02-17T02:02:00.644Z,4.70
2023-02-17T02:04:33.044Z,4.80
2023-02-17T02:07:01.774Z,4.90
2023-02-17T02:09:33.102Z,4.80
2023-02-17T02:12:01.522Z,4.80
2023-02-17T02:14:30.018Z,4.70
2023-02-17T02:17:07.051Z,4.60
2023-02-17T02:19:59.003Z,4.60
2023-02-17T02:22:52.698Z,4.60
2023-02-17T02:25:34.149Z,4.60
2023-02-17T02:28:14.164Z,4.60
2023-02-17T02:31:09.728Z,4.60
2023-02-17T02:33:43.170Z,4.70
2023-02-17T02:36:14.244Z,4.60
2023-02-17T02:38:45.522Z,4.70
2023-02-17T02:41:16.589Z,4.90
2023-02-17T02:43:45.322Z,5.20
2023-02-17T02:46:13.858Z,5.40
2023-02-17T02:48:43.987Z,5.40
2023-02-17T02:51:30.180Z,5.40
2023-02-17T02:54:29.014Z,5.30
2023-02-17T02:57:15.240Z,5.30
2023-02-17T02:59:51.156Z,5.20
2023-02-17T03:02:24.047Z,5.20
2023-02-17T03:05:00.176Z,5.10
2023-02-17T03:07:31.567Z,5.10
2023-02-17T03:10:01.036Z,5.00
2023-02-17T03:12:31.030Z,5.00
2023-02-17T03:15:02.907Z,4.90
2023-02-17T03:17:32.939Z,4.90
2023-02-17T03:20:04.615Z,4.90
2023-02-17T03:22:36.737Z,5.00
2023-02-17T03:25:05.883Z,5.00
2023-02-17T03:27:34.372Z,5.00
2023-02-17T03:30:03.000Z,5.00
2023-02-17T03:32:31.439Z,5.00
2023-02-17T03:34:59.866Z,4.90
2023-02-17T03:37:29.685Z,4.90
2023-02-17T03:39:58.132Z,4.90
2023-02-17T03:42:26.724Z,4.90
2023-02-17T03:44:55.354Z,4.80
2023-02-17T03:47:23.823Z,4.80
2023-02-17T03:49:52.350Z,5.00
2023-02-17T03:52:20.820Z,5.30
2023-02-17T03:54:50.836Z,5.40
2023-02-17T03:57:19.350Z,5.40
2023-02-17T03:59:47.841Z,5.40
2023-02-17T04:02:16.475Z,5.50
2023-02-17T04:04:44.984Z,5.80
2023-02-17T04:07:13.420Z,5.90
2023-02-17T04:09:41.866Z,6.00
2023-02-17T04:12:11.685Z,6.20
2023-02-17T04:14:40.179Z,6.30
2023-02-17T04:17:08.632Z,6.40
2023-02-17T04:19:37.245Z,6.30
2023-02-17T04:22:08.874Z,6.50
2023-02-17T04:24:37.582Z,6.70
2023-02-17T04:27:06.323Z,6.90
2023-02-17T04:29:36.178Z,7.00
2023-02-17T04:32:04.919Z,7.00
2023-02-17T04:34:33.393Z,7.00
2023-02-17T04:37:01.831Z,7.00
2023-02-17T04:39:30.226Z,7.00
2023-02-17T04:41:58.628Z,7.10
2023-02-17T04:44:27.135Z,7.00
2023-02-17T04:46:56.881Z,6.70
2023-02-17T04:49:25.397Z,6.40
2023-02-17T04:51:53.904Z,6.20
2023-02-17T04:54:23.336Z,6.00
2023-02-17T04:56:51.832Z,5.70
2023-02-17T04:59:20.196Z,5.50
2023-02-17T05:01:48.613Z,5.50
2023-02-17T05:04:18.497Z,5.50
2023-02-17T05:06:46.973Z,5.60
2023-02-17T05:09:15.428Z,5.70
2023-02-17T05:11:43.816Z,5.90
2023-02-17T05:14:12.288Z,6.00
2023-02-17T05:16:40.820Z,6.20
2023-02-17T05:19:09.252Z,6.30
2023-02-17T05:21:39.213Z,6.40
2023-02-17T05:24:08.217Z,6.50
2023-02-17T05:26:36.613Z,6.40
2023-02-17T05:29:05.207Z,6.30
2023-02-17T05:31:33.906Z,6.20
2023-02-17T05:34:02.636Z,6.20
2023-02-17T05:36:31.079Z,6.20
2023-02-17T05:39:00.893Z,6.30
2023-02-17T05:41:29.718Z,6.40
2023-02-17T05:43:58.143Z,6.40
2023-02-17T05:46:26.686Z,6.50
2023-02-17T05:48:55.125Z,6.50
2023-02-17T05:51:23.695Z,6.50
2023-02-17T05:53:52.283Z,6.60
2023-02-17T05:56:22.103Z,6.70
2023-02-17T05:58:50.769Z,6.80
2023-02-17T06:01:19.366Z,6.70
2023-02-17T06:03:47.887Z,6.50
2023-02-17T06:06:16.327Z,6.50
2023-02-17T06:08:44.765Z,6.40
2023-02-17T06:11:13.419Z,6.30
2023-02-17T06:13:43.301Z,6.10
2023-02-17T06:16:11.837Z,6.00
2023-02-17T06:18:40.402Z,6.00
2023-02-17T06:21:08.889Z,5.70
2023-02-17T06:23:37.428Z,5.40
2023-02-17T06:26:06.577Z,5.30
2023-02-17T06:28:35.283Z,5.00
2023-02-17T06:31:05.494Z,4.70
2023-02-17T06:33:33.966Z,4.50
2023-02-17T06:36:02.468Z,4.20
2023-02-17T06:38:30.937Z,3.80
2023-02-17T06:40:59.364Z,3.60
2023-02-17T06:43:27.878Z,3.30
2023-02-17T06:45:56.373Z,2.90
2023-02-17T06:48:26.622Z,2.60
2023-02-17T06:50:55.322Z,2.70
2023-02-17T06:53:23.839Z,2.80
2023-02-17T06:55:52.234Z,2.70
2023-02-17T06:58:20.724Z,2.70
2023-02-17T07:00:49.303Z,2.60
2023-02-17T07:03:17.736Z,2.40
2023-02-17T07:05:47.524Z,2.30
2023-02-17T07:08:16.044Z,2.30
2023-02-17T07:10:44.692Z,2.50
2023-02-17T07:13:13.185Z,2.60
2023-02-17T07:15:41.713Z,2.60
2023-02-17T07:18:10.157Z,2.60
2023-02-17T07:20:39.414Z,2.70
2023-02-17T07:23:09.222Z,2.90
2023-02-17T07:25:37.733Z,2.90
2023-02-17T07:28:06.410Z,3.10
2023-02-17T07:30:38.730Z,3.30
2023-02-17T07:33:07.503Z,3.20
2023-02-17T07:35:36.385Z,3.40
2023-02-17T07:38:04.813Z,3.50
2023-02-17T07:40:34.975Z,3.70
2023-02-17T07:43:03.393Z,3.80
2023-02-17T07:45:32.077Z,3.90
2023-02-17T07:48:00.565Z,4.00
2023-02-17T07:50:29.042Z,4.10
2023-02-17T07:52:57.428Z,4.10
2023-02-17T07:55:25.936Z,4.30
2023-02-17T07:57:55.886Z,4.50
2023-02-17T08:00:24.405Z,4.70
2023-02-17T08:02:52.773Z,4.90
2023-02-17T08:05:21.183Z,5.10
2023-02-17T08:08:09.680Z,5.30
2023-02-17T08:10:56.547Z,5.50
2023-02-17T08:13:26.647Z,5.80
2023-02-17T08:15:55.340Z,6.10
2023-02-17T08:18:23.808Z,6.40
2023-02-17T08:20:53.047Z,6.60
2023-02-17T08:23:21.563Z,6.90
2023-02-17T08:25:49.980Z,7.20
2023-02-17T08:28:18.454Z,7.50
2023-02-17T08:30:48.320Z,7.70
2023-02-17T08:33:18.812Z,7.90
2023-02-17T08:35:47.461Z,8.10
2023-02-17T08:38:16.803Z,8.30
2023-02-17T08:40:45.206Z,8.50
2023-02-17T08:43:13.650Z,8.70
2023-02-17T08:45:42.157Z,8.80
2023-02-17T08:48:12.093Z,8.90
2023-02-17T08:50:44.818Z,9.00
2023-02-17T08:53:13.196Z,9.20
2023-02-17T08:55:49.218Z,9.30
2023-02-17T08:58:18.210Z,9.60
2023-02-17T09:00:46.718Z,9.80
2023-02-17T09:03:16.641Z,10.00
2023-02-17T09:05:45.106Z,10.10
2023-02-17T09:08:13.638Z,10.30
2023-02-17T09:10:42.224Z,10.50
2023-02-17T09:13:10.689Z,10.60
2023-02-17T09:15:39.476Z,10.80
2023-02-17T09:18:08.265Z,11.00
2023-02-17T09:20:39.563Z,11.20
2023-02-17T09:23:08.521Z,11.40
2023-02-17T09:25:37.016Z,11.50
2023-02-17T09:28:05.888Z,11.70
2023-02-17T09:30:34.513Z,11.80
2023-02-17T09:33:03.756Z,11.90
2023-02-17T09:35:32.921Z,12.00
2023-02-17T09:38:03.340Z,12.10
2023-02-17T09:40:39.622Z,12.20
2023-02-17T09:43:09.819Z,12.30
2023-02-17T09:45:38.495Z,12.50
2023-02-17T09:48:09.883Z,12.60
2023-02-17T09:50:44.867Z,12.80
2023-02-17T09:53:19.250Z,13.00
2023-02-17T09:55:51.400Z,13.20
2023-02-17T09:58:22.559Z,13.40
2023-02-17T10:00:54.628Z,13.50
2023-02-17T10:03:27.980Z,13.50
2023-02-17T10:06:05.758Z,13.50
2023-02-17T10:08:38.105Z,13.50
2023-02-17T10:11:11.600Z,13.50
2023-02-17T10:13:41.284Z,13.60
2023-02-17T10:16:15.275Z,13.70
2023-02-17T10:18:48.817Z,13.70
2023-02-17T10:21:22.187Z,13.80
2023-02-17T10:23:52.479Z,13.80
2023-02-17T10:26:27.347Z,13.90
2023-02-17T10:28:58.954Z,13.90
2023-02-17T10:31:40.200Z,14.00
2023-02-17T10:34:15.073Z,14.20
2023-02-17T10:36:52.189Z,14.20
2023-02-17T10:39:33.939Z,14.40
2023-02-17T10:42:03.361Z,14.50
2023-02-17T10:44:32.491Z,14.70
2023-02-17T10:47:01.109Z,14.80
2023-02-17T10:49:32.202Z,14.80
2023-02-17T10:52:02.726Z,15.00
2023-02-17T10:54:36.128Z,15.00
2023-02-17T10:57:09.323Z,15.10
2023-02-17T10:59:41.615Z,15.10
2023-02-17T11:02:20.221Z,15.30
2023-02-17T11:04:50.529Z,15.40
2023-02-17T11:07:31.838Z,15.50
2023-02-17T11:10:03.100Z,15.80
2023-02-17T11:12:40.573Z,16.10
2023-02-17T11:15:18.459Z,16.20
2023-02-17T11:17:47.380Z,16.20
2023-02-17T11:20:35.659Z,16.30
2023-02-17T11:23:23.476Z,16.40
2023-02-17T11:26:02.783Z,16.50
2023-02-17T11:28:31.586Z,16.50
2023-02-17T11:31:03.000Z,16.50
2023-02-17T11:33:33.347Z,16.60
2023-02-17T11:36:02.706Z,16.70
2023-02-17T11:38:41.925Z,16.60
2023-02-17T11:41:12.129Z,16.60
2023-02-17T11:43:40.734Z,16.60
2023-02-17T11:46:17.341Z,16.60
2023-02-17T11:49:08.766Z,16.60
2023-02-17T11:51:48.270Z,16.60
2023-02-17T11:54:24.435Z,16.50
2023-02-17T11:57:04.981Z,16.60
2023-02-17T11:59:54.192Z,16.50
2023-02-17T12:02:35.475Z,16.40
2023-02-17T12:05:16.931Z,16.40
2023-02-17T12:08:00.014Z,16.40
2023-02-17T12:10:40.389Z,16.40
2023-02-17T12:13:21.608Z,16.40
2023-02-17T12:16:01.029Z,16.30
2023-02-17T12:18:43.086Z,16.30
2023-02-17T12:21:15.686Z,16.30
2023-02-17T12:24:14.466Z,16.20
2023-02-17T12:26:45.945Z,16.20
2023-02-17T12:29:26.877Z,16.10
2023-02-17T12:32:06.917Z,16.10
2023-02-17T12:34:39.551Z,16.10
2023-02-17T12:37:12.199Z,16.00
2023-02-17T12:39:43.975Z,16.00
2023-02-17T12:42:17.400Z,15.90
2023-02-17T12:44:50.888Z,15.90
2023-02-17T12:47:23.304Z,16.00
2023-02-17T12:49:56.152Z,16.20
2023-02-17T12:52:28.532Z,16.20
2023-02-17T12:54:59.589Z,16.30
2023-02-17T12:57:33.920Z,16.40
2023-02-17T13:00:13.283Z,16.40
2023-02-17T13:02:42.195Z,16.50
2023-02-17T13:05:22.937Z,16.50
2023-02-17T13:07:56.268Z,16.40
2023-02-17T13:10:35.483Z,16.40
2023-02-17T13:13:06.801Z,16.40
2023-02-17T13:15:39.061Z,16.40
2023-02-17T13:18:13.005Z,16.40
2023-02-17T13:20:59.929Z,16.40
2023-02-17T13:23:36.038Z,16.40
2023-02-17T13:26:16.864Z,16.40
2023-02-17T13:28:45.734Z,16.40
2023-02-17T13:31:18.481Z,16.50
2023-02-17T13:33:49.910Z,16.50
2023-02-17T13:36:23.684Z,16.50
2023-02-17T13:38:59.856Z,16.40
2023-02-17T13:41:29.691Z,16.40
2023-02-17T13:43:58.190Z,16.30
2023-02-17T13:46:28.288Z,16.30
2023-02-17T13:49:01.869Z,16.20
2023-02-17T13:51:31.817Z,16.20
2023-02-17T13:54:07.521Z,16.20
2023-02-17T13:56:36.022Z,16.20
2023-02-17T13:59:12.265Z,16.00
2023-02-17T14:01:43.956Z,16.00
2023-02-17T14:04:23.816Z,16.00
2023-02-17T14:06:52.988Z,15.90
2023-02-17T14:09:27.969Z,15.90
2023-02-17T14:11:57.380Z,15.80
2023-02-17T14:14:29.114Z,15.80
2023-02-17T14:17:06.465Z,15.80
2023-02-17T14:19:43.610Z,15.80
2023-02-17T14:22:24.790Z,15.80
2023-02-17T14:25:01.622Z,15.80
2023-02-17T14:27:30.425Z,15.70
2023-02-17T14:29:59.000Z,15.60
2023-02-17T14:32:30.085Z,15.60
2023-02-17T14:35:21.145Z,15.50
2023-02-17T14:37:50.445Z,15.50
2023-02-17T14:40:23.296Z,15.40
2023-02-17T14:42:52.241Z,15.40
2023-02-17T14:45:20.836Z,15.30
2023-02-17T14:47:50.707Z,15.30
2023-02-17T14:50:19.521Z,15.20
2023-02-17T14:52:52.343Z,15.20
2023-02-17T14:55:29.226Z,15.10
2023-02-17T14:57:57.833Z,15.10
2023-02-17T15:00:27.839Z,15.00
2023-02-17T15:02:57.719Z,15.00
2023-02-17T15:05:26.221Z,14.90
2023-02-17T15:07:54.772Z,14.90
2023-02-17T15:10:27.115Z,14.80
2023-02-17T15:12:55.838Z,14.70
2023-02-17T15:15:24.364Z,14.70
2023-02-17T15:17:52.819Z,14.60
2023-02-17T15:20:22.657Z,14.60
2023-02-17T15:22:52.906Z,14.50
2023-02-17T15:25:23.322Z,14.40
2023-02-17T15:27:52.056Z,14.40
2023-02-17T15:30:21.589Z,14.30
2023-02-17T15:32:50.440Z,14.30
2023-02-17T15:35:21.334Z,14.20
2023-02-17T15:37:51.469Z,14.10
2023-02-17T15:40:21.564Z,14.10
2023-02-17T15:42:54.573Z,14.10
2023-02-17T15:45:24.483Z,14.00
2023-02-17T15:48:03.169Z,14.00
2023-02-17T15:50:31.757Z,13.90
2023-02-17T15:53:01.736Z,13.80
2023-02-17T15:55:30.195Z,13.80
2023-02-17T15:57:59.823Z,13.70
2023-02-17T16:00:30.493Z,13.60
2023-02-17T16:02:59.097Z,13.60
2023-02-17T16:05:29.075Z,13.50
2023-02-17T16:07:57.835Z,13.50
2023-02-17T16:10:28.613Z,13.50
2023-02-17T16:12:58.905Z,13.40
2023-02-17T16:15:28.189Z,13.30
2023-02-17T16:17:57.717Z,13.30
2023-02-17T16:20:28.594Z,13.20
2023-02-17T16:22:57.475Z,13.20
2023-02-17T16:25:27.828Z,13.10
2023-02-17T16:27:56.779Z,13.00
2023-02-17T16:30:28.177Z,13.00
2023-02-17T16:32:56.851Z,12.90
2023-02-17T16:35:27.151Z,12.80
2023-02-17T16:37:59.690Z,12.70
2023-02-17T16:40:32.346Z,12.60
2023-02-17T16:43:01.212Z,12.50
2023-02-17T16:45:32.158Z,12.40
2023-02-17T16:48:02.619Z,12.30
2023-02-17T16:50:32.834Z,12.20
2023-02-17T16:53:04.069Z,12.20
2023-02-17T16:55:35.261Z,12.30
2023-02-17T16:58:04.503Z,12.30
2023-02-17T17:00:34.726Z,12.30
2023-02-17T17:03:03.232Z,12.20
2023-02-17T17:05:32.373Z,12.10
2023-02-17T17:08:00.855Z,12.00
2023-02-17T17:10:31.145Z,12.00
2023-02-17T17:13:01.214Z,11.90
2023-02-17T17:15:29.923Z,11.80
2023-02-17T17:18:00.206Z,11.70
2023-02-17T17:20:31.952Z,11.70
2023-02-17T17:23:01.352Z,11.60
2023-02-17T17:25:30.481Z,11.60
2023-02-17T17:28:00.462Z,11.60
2023-02-17T17:30:32.736Z,11.50
2023-02-17T17:33:01.499Z,11.40
2023-02-17T17:35:30.925Z,11.40
2023-02-17T17:37:59.877Z,11.30
2023-02-17T17:40:31.533Z,11.20
2023-02-17T17:43:01.618Z,11.20
2023-02-17T17:45:30.037Z,11.10
2023-02-17T17:47:58.769Z,11.10
2023-02-17T17:50:27.343Z,11.10
2023-02-17T17:52:55.948Z,11.00
2023-02-17T17:55:26.453Z,10.80
2023-02-17T17:57:54.870Z,10.60
2023-02-17T18:00:25.421Z,10.60
2023-02-17T18:02:54.272Z,10.40
2023-02-17T18:05:22.694Z,10.30
2023-02-17T18:07:52.159Z,10.20
2023-02-17T18:10:20.779Z,10.20
2023-02-17T18:12:49.718Z,10.10
2023-02-17T18:15:18.717Z,10.20
2023-02-17T18:17:49.584Z,10.10
2023-02-17T18:20:18.180Z,10.10
2023-02-17T18:22:46.645Z,10.00
2023-02-17T18:25:15.083Z,9.90
2023-02-17T18:27:45.591Z,9.80
2023-02-17T18:30:16.332Z,9.70
2023-02-17T18:32:44.859Z,9.70
2023-02-17T18:35:15.423Z,9.50
2023-02-17T18:37:44.033Z,9.50
2023-02-17T18:40:14.358Z,9.50
2023-02-17T18:42:45.409Z,9.50
2023-02-17T18:45:14.719Z,9.50
2023-02-17T18:47:43.901Z,9.50
2023-02-17T18:50:14.813Z,9.40
2023-02-17T18:52:44.897Z,9.40
2023-02-17T18:55:14.090Z,9.40
2023-02-17T18:57:44.776Z,9.40
2023-02-17T19:00:16.661Z,9.40
2023-02-17T19:02:45.419Z,9.30
2023-02-17T19:05:17.542Z,9.30
2023-02-17T19:07:45.996Z,9.20
2023-02-17T19:10:14.965Z,9.10
2023-02-17T19:12:43.398Z,9.10
2023-02-17T19:15:13.934Z,9.00
2023-02-17T19:17:42.587Z,9.00
2023-02-17T19:20:12.673Z,9.00
2023-02-17T19:22:42.618Z,9.00
2023-02-17T19:25:11.356Z,8.90
2023-02-17T19:27:41.689Z,8.90
2023-02-17T19:30:11.589Z,8.90
2023-02-17T19:32:40.248Z,9.00
2023-02-17T19:35:11.593Z,8.90
2023-02-17T19:37:40.315Z,8.90
2023-02-17T19:40:11.070Z,8.90
2023-02-17T19:42:40.397Z,9.00
2023-02-17T19:45:09.418Z,8.90
2023-02-17T19:47:37.913Z,8.80
2023-02-17T19:50:07.870Z,8.80
2023-02-17T19:52:38.356Z,8.70
2023-02-17T19:55:07.217Z,8.70
2023-02-17T19:57:37.178Z,8.60
2023-02-17T20:00:07.152Z,8.60
2023-02-17T20:02:35.680Z,8.50
2023-02-17T20:05:04.506Z,8.50
2023-02-17T20:07:32.972Z,8.50
2023-02-17T20:10:01.440Z,8.40
2023-02-17T20:12:29.907Z,8.40
2023-02-17T20:15:00.150Z,8.50
2023-02-17T20:17:28.633Z,8.40
2023-02-17T20:19:57.287Z,8.40
2023-02-17T20:22:25.761Z,8.40
2023-02-17T20:24:54.300Z,8.30
2023-02-17T20:27:22.855Z,8.30
2023-02-17T20:29:51.376Z,8.30
2023-02-17T20:32:21.380Z,8.20
2023-02-17T20:34:52.541Z,8.20
2023-02-17T20:37:21.119Z,8.20
2023-02-17T20:39:49.798Z,8.20
2023-02-17T20:42:18.404Z,8.30
2023-02-17T20:45:00.494Z,8.20
2023-02-17T20:47:55.404Z,8.30
2023-02-17T20:50:42.336Z,8.30
2023-02-17T20:53:29.565Z,8.30
2023-02-17T20:56:16.583Z,8.20
2023-02-17T20:58:51.096Z,8.10
2023-02-17T21:01:37.940Z,8.10
2023-02-17T21:04:37.345Z,8.00
2023-02-17T21:07:06.293Z,8.00
2023-02-17T21:09:35.250Z,7.90
2023-02-17T21:12:04.075Z,7.80
2023-02-17T21:14:32.851Z,7.70
2023-02-17T21:17:19.758Z,7.70
2023-02-17T21:19:49.645Z,7.60
2023-02-17T21:22:18.253Z,7.60
2023-02-17T21:24:46.838Z,7.70
2023-02-17T21:27:15.321Z,7.70
2023-02-17T21:29:43.772Z,7.70
2023-02-17T21:32:12.248Z,7.80
2023-02-17T21:34:40.866Z,7.80
2023-02-17T21:37:10.653Z,7.90
2023-02-17T21:39:39.259Z,7.90
2023-02-17T21:42:07.701Z,8.00
2023-02-17T21:44:53.244Z,8.00
2023-02-17T21:47:22.203Z,8.00
2023-02-17T21:49:54.430Z,7.90
2023-02-17T21:52:24.439Z,7.90
2023-02-17T21:54:52.992Z,7.90
2023-02-17T21:57:21.453Z,7.80
2023-02-17T21:59:49.948Z,7.80
2023-02-17T22:02:18.482Z,7.80
2023-02-17T22:04:46.928Z,7.80
2023-02-17T22:07:15.443Z,7.80
2023-02-17T22:09:45.302Z,7.80
2023-02-17T22:12:13.844Z,7.80
2023-02-17T22:14:42.266Z,7.80
2023-02-17T22:17:10.728Z,7.90
2023-02-17T22:19:39.180Z,7.90
2023-02-17T22:22:07.661Z,7.90
2023-02-17T22:24:36.136Z,7.90
2023-02-17T22:27:06.197Z,7.90
2023-02-17T22:29:34.769Z,7.90
2023-02-17T22:32:03.268Z,8.20
2023-02-17T22:34:31.786Z,8.70
2023-02-17T22:37:00.223Z,9.30
2023-02-17T22:39:28.814Z,9.70
2023-02-17T22:41:57.248Z,10.10
2023-02-17T22:44:27.156Z,10.40
2023-02-17T22:46:55.705Z,10.60
2023-02-17T22:49:24.128Z,10.70
2023-02-17T22:51:52.581Z,10.80
2023-02-17T22:54:21.112Z,10.90
2023-02-17T22:56:49.558Z,11.10
2023-02-17T22:59:17.989Z,11.10
2023-02-17T23:01:47.852Z,11.00
2023-02-17T23:04:16.666Z,10.80
2023-02-17T23:06:45.599Z,10.50
2023-02-17T23:09:17.069Z,10.30
2023-02-17T23:11:54.939Z,10.10
2023-02-17T23:14:25.900Z,9.90
2023-02-17T23:16:58.484Z,10.10
2023-02-17T23:19:27.179Z,10.10
2023-02-17T23:21:57.781Z,10.00
2023-02-17T23:24:27.267Z,9.80
2023-02-17T23:26:57.018Z,9.90
2023-02-17T23:29:25.738Z,9.90
2023-02-17T23:31:55.661Z,9.80
2023-02-17T23:34:24.237Z,9.90
2023-02-17T23:36:52.678Z,9.80
2023-02-17T23:39:21.304Z,9.80
2023-02-17T23:41:49.790Z,9.70
2023-02-17T23:44:18.728Z,9.70
2023-02-17T23:46:47.432Z,9.70
2023-02-17T23:49:18.060Z,9.70
2023-02-17T23:51:47.305Z,9.60
2023-02-17T23:54:16.179Z,9.60
2023-02-17T23:56:45.035Z,9.60
2023-02-17T23:59:13.810Z,9.60
